Archival Weather

Republic

Farmingdale, New York (KFRG)

Report from: Wednesday, February 21, 2024 10:53 AM EST
Current time: Friday, June 14, 2024 8:20 AM EDT

Current weather – Weather history – Daily summaries
Weather forecast

Temperature2.2°C (36.0°F)
Wind chill-1.7°C (29.0°F)
Dew point-3.9°C (25.0°F)
Winds 8 kts (4.1 m/s, 9.2 mph) East (100°)
Visibility10 mi. (16.1 km)
Clouds Ceiling: Overcast 3,300 ft. (1,006 m)
Altimeter30.49 in.Hg (1033 mB)
Relative humidity64 %
Density altitude-2,136 ft. (-651 m)
Sea-level pressure103.3 kPa (1033 mB, 30.49 in.Hg)
Remarks Automated weather observing station without precipitation discriminator
Flight conditions Visual Meteorological Conditions
Raw dataKFRG 211553Z 10008KT 10SM OVC033 02/M04 A3049 RMK AO1 SLP325 T00221039
An error has occurred. This application may no longer respond until reloaded. Reload 🗙